Airfield :
LOGIN :

Register | Disclaimer

   EN    FR    IT 

 










Legend :    VFR   Marginal VFR   IFR   Intensive IFR   Very Intensive IFR
Visi :
Ceiling :
>= 8 km
>= 3000ft
5 to 8 km
1000 to 3000 ft
1500m to 5 km
500 to 1000 ft
800 to 1500m
200 to 500 ft
< 800m
< 200 ft
Symbols :   Thunderstorms  Fog  Heavy snow  Heavy precipitations  Wind > 20 kt
SIGMETs :     Misc.  Thunderstorms  Icing  Turbulence  Mountain Waves  Volcanic Ashes






- Airport Elevation : 13 ft
- IATA code : OST


EBOS - Oostend bruges Int.

CURRENT METAR :
  • 021620Z 01005KT CAVOK 08/03 Q1029 NOSIG

EXPIRED METARs :
  • 021550Z 02005KT CAVOK 09/03 Q1029 NOSIG
  • 021520Z 01005KT CAVOK 09/02 Q1029 NOSIG
  • 021450Z 35005KT 9000 NSC 09/02 Q1029 NOSIG
  • 021420Z 35005KT 9000 NSC 09/02 Q1029 NOSIG
  • 021350Z 36005KT 9000 NSC 09/03 Q1029 NOSIG
  • 021320Z 35005KT 320V020 CAVOK 10/04 Q1029 NOSIG

TAF TAF EBOS
Valid from the 02 at 12:00 until the 03 at 18:00 UTC


021101Z 0212/0318 13004KT CAVOK
PROB40
TEMPO 0222/0304 3000 BR
PROB30
TEMPO 0300/0306 1200 BCFG
BECMG 0304/0306 2500 BR BKN003
PROB40
TEMPO 0306/0310 0800 FG BKN001
PROB40 0312/0318 4500 BR BKN005
PROB30 0312/0318 6000 NSW SCT006



MET'MAP, your aeronautical weather chart ! - Copyright ORBIFLY December 2007 - Disclaimer

ORBIFLY MET'MAP TEAM :

Programming & Development : Alexandra Zaïnal
Concept & original design : Baudouin d'Aumeries
Assistance for programming : Marc-Olivier Méhu
Technical & hardware support : Manuel Goepfert

Contact : metmap@orbifly.com




SOURCES & CREDITS :

   NOAA